Time;durP1;ratioP1;P1;durP2;ratioP2;P2;SDS_P1;SDS_P2;PMS_P1;PMS_P2;Temp;Humidity;BMP_temperature;BMP_pressure;BME280_temperature;BME280_humidity;BME280_pressure;Samples;Min_cycle;Max_cycle;Signal;HPM_P1;HPM_P2
2022/04/09 00:01:53;;;;;;;0.50;0.40;;;16.80;60.60;;;;;;4990901;28;20411;-13
2022/04/09 00:04:19;;;;;;;0.30;0.30;;;16.70;60.50;;;;;;4976573;28;20154;-13
2022/04/09 00:06:44;;;;;;;0.30;0.30;;;16.70;60.60;;;;;;4989354;28;20403;-13
2022/04/09 00:09:10;;;;;;;0.40;0.40;;;16.70;60.50;;;;;;4992974;28;20054;-12
2022/04/09 00:11:36;;;;;;;0.50;0.50;;;16.70;60.70;;;;;;4994900;28;20590;-13
2022/04/09 00:14:01;;;;;;;0.50;0.50;;;16.70;60.60;;;;;;4995818;28;20042;-14
2022/04/09 00:16:27;;;;;;;0.32;0.32;;;16.70;60.60;;;;;;4995812;28;20049;-12
2022/04/09 00:18:52;;;;;;;0.52;0.50;;;16.70;60.60;;;;;;4981169;28;20054;-12
2022/04/09 00:21:18;;;;;;;0.73;0.50;;;16.70;60.60;;;;;;4995322;28;20050;-13
2022/04/09 00:23:44;;;;;;;0.50;0.50;;;16.70;60.60;;;;;;4993257;28;20534;-15
2022/04/09 00:26:09;;;;;;;0.60;0.60;;;16.70;60.90;;;;;;4998708;28;20108;-16
2022/04/09 00:28:35;;;;;;;0.60;0.43;;;16.70;60.90;;;;;;4999075;28;20038;-13
2022/04/09 00:31:00;;;;;;;0.40;0.40;;;16.70;60.60;;;;;;4999721;28;20041;-14
2022/04/09 00:33:26;;;;;;;0.35;0.35;;;16.70;60.80;;;;;;4999755;28;20492;-14
2022/04/09 00:35:51;;;;;;;0.40;0.40;;;16.70;60.80;;;;;;4998368;28;20054;-12
2022/04/09 00:38:17;;;;;;;0.50;0.50;;;16.70;60.80;;;;;;4996731;28;20053;-15
2022/04/09 00:40:43;;;;;;;0.57;0.57;;;16.70;60.90;;;;;;4979242;28;20046;-13
2022/04/09 00:43:08;;;;;;;0.43;0.40;;;16.70;60.80;;;;;;4998766;28;20050;-13
2022/04/09 00:45:34;;;;;;;0.50;0.50;;;16.70;60.60;;;;;;4998149;28;20507;-15
2022/04/09 00:48:00;;;;;;;0.50;0.50;;;16.70;60.90;;;;;;4999478;28;20100;-13
2022/04/09 00:50:25;;;;;;;0.45;0.45;;;16.60;60.70;;;;;;4998275;28;20039;-12
2022/04/09 00:52:52;;;;;;;0.50;0.40;;;16.60;60.80;;;;;;4991373;28;20042;-16
2022/04/09 00:56:12;;;;;;;0.50;0.50;;;16.60;60.70;;;;;;4986671;28;20136;-13
2022/04/09 00:58:09;;;;;;;0.40;0.40;;;16.70;60.80;;;;;;4992904;28;20065;-12
2022/04/09 01:00:34;;;;;;;0.50;0.50;;;16.60;60.70;;;;;;4997410;28;20527;-16
2022/04/09 01:03:00;;;;;;;0.32;0.32;;;16.60;60.70;;;;;;4974984;28;20510;-12
2022/04/09 01:05:26;;;;;;;0.52;0.50;;;16.60;60.80;;;;;;4985505;28;20043;-13
2022/04/09 01:07:52;;;;;;;0.52;0.52;;;16.60;60.80;;;;;;4986783;28;20042;-15
2022/04/09 01:10:17;;;;;;;0.40;0.40;;;16.60;60.60;;;;;;4968282;28;20043;-13
2022/04/09 01:12:43;;;;;;;0.57;0.57;;;16.60;60.70;;;;;;4985473;28;20066;-12
2022/04/09 01:15:09;;;;;;;0.55;0.55;;;16.60;60.80;;;;;;4986835;28;20067;-13
2022/04/09 01:17:36;;;;;;;1.42;0.52;;;16.60;60.80;;;;;;4988070;28;20050;-16
2022/04/09 01:20:14;;;;;;;0.50;0.50;;;16.60;60.70;;;;;;4993033;28;20042;-13
2022/04/09 01:22:40;;;;;;;1.02;0.90;;;16.60;60.70;;;;;;4997223;28;20082;-15
2022/04/09 01:25:06;;;;;;;0.40;0.38;;;16.60;60.70;;;;;;4998106;28;20049;-12
2022/04/09 01:27:31;;;;;;;0.35;0.32;;;16.60;60.60;;;;;;4998336;28;20054;-12
2022/04/09 01:29:57;;;;;;;0.60;0.43;;;16.60;60.50;;;;;;4995144;28;20058;-16
2022/04/09 01:32:22;;;;;;;0.40;0.40;;;16.60;60.70;;;;;;4998067;28;20443;-12
2022/04/09 01:34:48;;;;;;;0.38;0.38;;;16.60;60.70;;;;;;4985583;28;20046;-15
2022/04/09 01:37:14;;;;;;;0.40;0.40;;;16.60;60.70;;;;;;4988321;28;20042;-15
2022/04/09 01:39:40;;;;;;;0.40;0.40;;;16.50;60.60;;;;;;4986517;28;20508;-12
2022/04/09 01:42:10;;;;;;;0.32;0.30;;;16.60;61.50;;;;;;4987818;28;20416;-13
2022/04/09 01:44:36;;;;;;;0.90;0.57;;;16.60;60.70;;;;;;4985407;28;20120;-12
2022/04/09 01:47:02;;;;;;;0.32;0.32;;;16.50;60.70;;;;;;4989698;28;20054;-13
2022/04/09 01:49:28;;;;;;;0.40;0.40;;;16.50;60.80;;;;;;4992440;28;20042;-16
2022/04/09 01:51:53;;;;;;;0.40;0.40;;;16.50;60.90;;;;;;4990697;28;20042;-13
2022/04/09 01:54:19;;;;;;;0.30;0.30;;;16.50;60.70;;;;;;4998518;28;20563;-14
2022/04/09 01:56:44;;;;;;;0.32;0.30;;;16.50;60.80;;;;;;4996730;28;20047;-14
2022/04/09 01:59:10;;;;;;;0.40;0.40;;;16.50;60.70;;;;;;4985283;28;20076;-13
2022/04/09 02:01:35;;;;;;;0.60;0.60;;;16.50;60.60;;;;;;4998066;28;20042;-14
2022/04/09 02:04:01;;;;;;;0.50;0.50;;;16.50;60.60;;;;;;4995966;28;20039;-14
2022/04/09 02:06:28;;;;;;;0.40;0.40;;;16.50;60.70;;;;;;4997670;28;20053;-13
2022/04/09 02:08:54;;;;;;;0.40;0.40;;;16.50;60.70;;;;;;4978296;28;20090;-14
2022/04/09 02:11:19;;;;;;;0.50;0.32;;;16.50;60.70;;;;;;4997690;28;20049;-14
2022/04/09 02:13:45;;;;;;;0.40;0.40;;;16.50;60.70;;;;;;4996728;28;20487;-14
2022/04/09 02:16:10;;;;;;;0.30;0.30;;;16.50;60.70;;;;;;4998012;28;20042;-13
2022/04/09 02:18:36;;;;;;;0.50;0.30;;;16.50;60.60;;;;;;4997951;28;20659;-14
2022/04/09 02:21:02;;;;;;;0.40;0.40;;;16.50;60.50;;;;;;4978398;28;20107;-14
2022/04/09 02:23:27;;;;;;;0.30;0.30;;;16.50;61.30;;;;;;4977992;28;20055;-14
2022/04/09 02:25:53;;;;;;;0.57;0.30;;;16.50;60.60;;;;;;4977499;28;20051;-14
2022/04/09 02:28:18;;;;;;;0.30;0.30;;;16.50;60.60;;;;;;4978054;28;20047;-13
2022/04/09 02:30:44;;;;;;;0.50;0.50;;;16.50;60.60;;;;;;4977641;28;20130;-14
2022/04/09 02:33:09;;;;;;;0.32;0.32;;;16.50;60.60;;;;;;4978082;28;20043;-13
2022/04/09 02:35:35;;;;;;;0.38;0.38;;;16.40;60.80;;;;;;4985872;28;20049;-14
2022/04/09 02:38:02;;;;;;;0.43;0.30;;;16.40;60.70;;;;;;4996792;28;20121;-15
2022/04/09 02:40:28;;;;;;;0.40;0.30;;;16.50;60.60;;;;;;4997442;28;20108;-13
2022/04/09 02:42:54;;;;;;;0.40;0.40;;;16.50;60.60;;;;;;4996571;28;20034;-13
2022/04/09 02:45:21;;;;;;;0.40;0.40;;;16.40;61.50;;;;;;4996596;28;20049;-13
2022/04/09 02:47:46;;;;;;;0.28;0.28;;;16.50;60.50;;;;;;4995999;28;20038;-14
2022/04/09 02:50:12;;;;;;;0.35;0.35;;;16.50;60.50;;;;;;4997238;28;20096;-13
2022/04/09 02:52:39;;;;;;;0.40;0.30;;;16.40;60.60;;;;;;4996471;28;20054;-13
2022/04/09 02:55:05;;;;;;;0.40;0.40;;;16.40;60.70;;;;;;4996392;28;20050;-14
2022/04/09 02:57:32;;;;;;;1.10;0.20;;;16.50;60.60;;;;;;4997029;28;20069;-14
2022/04/09 02:59:57;;;;;;;0.65;0.30;;;16.40;60.60;;;;;;4996315;28;20102;-13
2022/04/09 03:02:23;;;;;;;1.55;0.32;;;16.40;60.60;;;;;;4996440;28;20542;-14
2022/04/09 03:04:49;;;;;;;1.13;0.45;;;16.40;60.60;;;;;;4996285;28;20139;-13
2022/04/09 03:07:14;;;;;;;0.30;0.30;;;16.40;60.60;;;;;;4996768;28;20042;-14
2022/04/09 03:09:40;;;;;;;0.60;0.60;;;16.50;60.70;;;;;;4996831;28;20043;-13
2022/04/09 03:12:06;;;;;;;0.20;0.20;;;16.40;60.60;;;;;;4995494;28;20053;-12
2022/04/09 03:14:31;;;;;;;0.30;0.30;;;16.40;60.60;;;;;;4996248;28;20053;-14
2022/04/09 03:16:57;;;;;;;0.40;0.40;;;16.40;60.70;;;;;;4995543;28;20050;-13
2022/04/09 03:19:23;;;;;;;0.30;0.30;;;16.40;60.60;;;;;;4996076;28;20073;-14
2022/04/09 03:21:48;;;;;;;0.73;0.30;;;16.40;60.50;;;;;;4979602;28;20047;-14
2022/04/09 03:24:14;;;;;;;0.28;0.28;;;16.40;60.70;;;;;;4976939;28;20062;-14
2022/04/09 03:26:39;;;;;;;0.40;0.40;;;16.40;60.60;;;;;;4983367;28;20138;-15
2022/04/09 03:29:05;;;;;;;0.30;0.30;;;16.40;60.50;;;;;;4996119;28;20108;-13
2022/04/09 03:31:31;;;;;;;0.30;0.30;;;16.40;60.70;;;;;;4996598;28;20039;-13
2022/04/09 03:33:56;;;;;;;0.30;0.20;;;16.40;60.60;;;;;;4995403;28;20463;-13
2022/04/09 03:36:22;;;;;;;0.30;0.30;;;16.40;60.50;;;;;;4996579;28;20404;-13
2022/04/09 03:38:48;;;;;;;0.28;0.25;;;16.40;60.60;;;;;;4995850;28;20413;-13
2022/04/09 03:41:14;;;;;;;0.35;0.35;;;16.40;60.60;;;;;;4989040;28;20062;-13
2022/04/09 03:43:39;;;;;;;0.30;0.30;;;16.40;60.50;;;;;;4986028;28;20446;-13
2022/04/09 03:46:05;;;;;;;0.30;0.30;;;16.40;60.60;;;;;;4995113;28;20104;-14
2022/04/09 03:48:31;;;;;;;0.40;0.40;;;16.40;60.60;;;;;;4995705;28;20073;-13
2022/04/09 03:50:56;;;;;;;0.30;0.30;;;16.40;60.50;;;;;;4995602;28;20623;-13
2022/04/09 03:53:22;;;;;;;0.28;0.28;;;16.30;60.60;;;;;;4996265;28;20407;-13
2022/04/09 03:55:48;;;;;;;0.20;0.20;;;16.30;60.60;;;;;;4977546;28;20066;-13
2022/04/09 03:58:16;;;;;;;0.43;0.43;;;16.30;60.60;;;;;;4976591;28;20061;-13
2022/04/09 04:00:42;;;;;;;0.47;0.38;;;16.30;60.70;;;;;;4977062;28;20050;-16
2022/04/09 04:03:09;;;;;;;0.30;0.30;;;16.30;60.70;;;;;;4974997;28;20133;-13
2022/04/09 04:05:38;;;;;;;0.75;0.30;;;16.30;60.50;;;;;;4993319;28;20042;-13
2022/04/09 04:08:05;;;;;;;0.40;0.40;;;16.30;60.50;;;;;;4987040;28;20047;-13
2022/04/09 04:10:31;;;;;;;0.20;0.20;;;16.30;60.60;;;;;;4989150;28;20073;-13
2022/04/09 04:12:57;;;;;;;0.35;0.35;;;16.30;60.60;;;;;;4995359;28;20042;-13
2022/04/09 04:15:22;;;;;;;0.40;0.40;;;16.30;60.50;;;;;;4996100;28;20664;-13
2022/04/09 04:17:49;;;;;;;0.35;0.30;;;16.30;60.50;;;;;;4994632;28;20054;-13
2022/04/09 04:20:15;;;;;;;0.30;0.30;;;16.30;60.30;;;;;;4996074;28;20129;-13
2022/04/09 04:22:41;;;;;;;0.40;0.30;;;16.30;60.70;;;;;;4995822;28;20085;-14
2022/04/09 04:25:07;;;;;;;0.22;0.22;;;16.20;60.50;;;;;;4985757;28;20077;-13
2022/04/09 04:27:32;;;;;;;0.20;0.17;;;16.30;60.50;;;;;;4976403;28;20046;-13
2022/04/09 04:29:59;;;;;;;0.45;0.30;;;16.30;60.30;;;;;;4975829;28;20377;-13
2022/04/09 04:32:25;;;;;;;0.20;0.20;;;16.30;60.40;;;;;;4976632;28;20413;-13
2022/04/09 04:34:51;;;;;;;0.28;0.25;;;16.30;60.50;;;;;;4976270;28;20046;-13
2022/04/09 04:37:16;;;;;;;0.30;0.30;;;16.30;60.40;;;;;;4976281;28;20043;-13
2022/04/09 04:39:43;;;;;;;0.30;0.30;;;16.20;60.50;;;;;;4976379;28;20047;-13
2022/04/09 04:42:08;;;;;;;0.30;0.30;;;16.30;60.40;;;;;;4986569;28;20439;-13
2022/04/09 04:44:34;;;;;;;0.50;0.30;;;16.30;60.50;;;;;;4995559;28;20145;-13
2022/04/09 04:47:00;;;;;;;0.45;0.28;;;16.20;60.50;;;;;;4995107;28;20042;-13
2022/04/09 04:49:25;;;;;;;0.40;0.40;;;16.20;60.50;;;;;;4995689;28;20112;-13
2022/04/09 04:51:51;;;;;;;0.20;0.20;;;16.30;60.50;;;;;;4975977;28;20079;-13
2022/04/09 04:54:16;;;;;;;0.38;0.38;;;16.30;60.40;;;;;;4976261;28;20066;-14
2022/04/09 04:56:42;;;;;;;0.32;0.30;;;16.20;60.60;;;;;;4976071;28;20066;-13
2022/04/09 04:59:08;;;;;;;0.32;0.20;;;16.20;60.60;;;;;;4975585;28;20050;-13
2022/04/09 05:01:37;;;;;;;0.32;0.20;;;16.20;60.70;;;;;;4976465;28;20131;-13
2022/04/09 05:04:03;;;;;;;0.20;0.20;;;16.20;60.60;;;;;;4975431;28;20541;-12
2022/04/09 05:06:29;;;;;;;0.20;0.20;;;16.20;60.50;;;;;;4982505;28;20050;-13
2022/04/09 05:08:55;;;;;;;0.70;0.43;;;16.30;60.50;;;;;;4993697;28;20050;-13
2022/04/09 05:11:21;;;;;;;0.35;0.28;;;16.20;60.50;;;;;;4996706;28;20530;-12
2022/04/09 05:13:47;;;;;;;0.10;0.10;;;16.20;60.60;;;;;;4992809;28;20130;-13
2022/04/09 05:16:13;;;;;;;0.30;0.30;;;16.20;60.60;;;;;;4998511;28;20206;-12
2022/04/09 05:18:38;;;;;;;0.30;0.30;;;16.20;60.60;;;;;;4999077;28;20082;-12
2022/04/09 05:21:04;;;;;;;0.30;0.30;;;16.20;60.70;;;;;;4997684;28;20562;-13
2022/04/09 05:23:29;;;;;;;0.30;0.20;;;16.10;60.60;;;;;;4998647;28;20403;-12
2022/04/09 05:25:55;;;;;;;0.60;0.40;;;16.10;60.50;;;;;;4998202;28;20058;-13
2022/04/09 05:28:21;;;;;;;0.25;0.25;;;16.20;60.70;;;;;;4985246;28;20051;-13
2022/04/09 05:30:46;;;;;;;0.30;0.30;;;16.20;60.40;;;;;;4981773;28;20138;-12
2022/04/09 05:33:12;;;;;;;0.15;0.10;;;16.20;60.40;;;;;;4996917;28;20050;-13
2022/04/09 05:35:37;;;;;;;0.20;0.20;;;16.20;60.40;;;;;;4998636;28;20037;-13
2022/04/09 05:38:03;;;;;;;0.68;0.35;;;16.10;60.50;;;;;;4997965;28;20047;-12
2022/04/09 05:40:29;;;;;;;0.28;0.25;;;16.20;60.50;;;;;;4998070;28;20053;-13
2022/04/09 05:42:56;;;;;;;0.20;0.20;;;16.10;60.50;;;;;;4705607;28;10001096;-15
2022/04/09 05:45:22;;;;;;;3.85;0.30;;;16.10;60.70;;;;;;4978692;28;20410;-15
2022/04/09 05:47:48;;;;;;;0.28;0.28;;;16.10;61.20;;;;;;4980235;28;20054;-15
2022/04/09 05:50:14;;;;;;;0.38;0.30;;;16.10;61.10;;;;;;4980433;28;20042;-17
2022/04/09 05:52:40;;;;;;;0.40;0.30;;;16.10;61.00;;;;;;4981103;28;20120;-15
2022/04/09 05:55:06;;;;;;;0.57;0.22;;;16.10;60.80;;;;;;4979858;28;20058;-15
2022/04/09 05:57:32;;;;;;;0.30;0.30;;;16.10;61.60;;;;;;4981102;28;20050;-15
2022/04/09 05:59:58;;;;;;;0.55;0.32;;;16.10;61.00;;;;;;4979141;28;21114;-15
2022/04/09 06:02:23;;;;;;;0.30;0.30;;;16.10;61.10;;;;;;4979254;28;21988;-16
2022/04/09 06:04:49;;;;;;;0.20;0.20;;;16.10;61.10;;;;;;4980806;28;20053;-15
2022/04/09 06:07:14;;;;;;;0.73;0.20;;;16.10;61.10;;;;;;4978931;28;20058;-15
2022/04/09 06:09:41;;;;;;;0.30;0.30;;;16.10;61.10;;;;;;4978753;28;20137;-14
2022/04/09 06:12:07;;;;;;;0.28;0.28;;;16.10;61.00;;;;;;4978715;28;20681;-15
2022/04/09 06:14:33;;;;;;;0.50;0.40;;;16.20;60.90;;;;;;4980608;28;20050;-17
2022/04/09 06:16:59;;;;;;;0.30;0.30;;;16.10;60.80;;;;;;4979897;28;20051;-16
2022/04/09 06:19:25;;;;;;;0.30;0.20;;;16.10;60.70;;;;;;4979436;28;20050;-16
2022/04/09 06:21:51;;;;;;;0.32;0.25;;;16.10;61.10;;;;;;4980463;28;20057;-16
2022/04/09 06:24:17;;;;;;;0.50;0.40;;;16.10;61.00;;;;;;4981240;28;20058;-15
2022/04/09 06:26:42;;;;;;;0.57;0.30;;;16.10;60.90;;;;;;4982472;28;20054;-15
2022/04/09 06:29:08;;;;;;;0.57;0.30;;;16.10;61.00;;;;;;4979781;28;20054;-14
2022/04/09 06:31:33;;;;;;;0.57;0.22;;;16.10;61.00;;;;;;4982678;28;20050;-14
2022/04/09 06:33:59;;;;;;;0.38;0.20;;;16.20;60.90;;;;;;4982259;28;20053;-15
2022/04/09 06:36:24;;;;;;;0.30;0.30;;;16.10;60.70;;;;;;4982671;28;20503;-14
2022/04/09 06:38:50;;;;;;;0.38;0.38;;;16.20;60.80;;;;;;4980356;28;20129;-14
2022/04/09 06:41:18;;;;;;;2.05;0.15;;;16.30;60.50;;;;;;4988197;28;20042;-14
2022/04/09 06:43:45;;;;;;;0.30;0.30;;;16.20;60.50;;;;;;4992627;28;20057;-14
2022/04/09 06:46:11;;;;;;;0.20;0.20;;;16.20;60.40;;;;;;4994986;28;20140;-14
2022/04/09 06:48:37;;;;;;;0.38;0.20;;;16.20;60.10;;;;;;4994155;28;20074;-14
2022/04/09 06:51:03;;;;;;;0.20;0.20;;;16.20;60.50;;;;;;4995773;28;20050;-14
2022/04/09 06:53:29;;;;;;;0.30;0.30;;;16.30;60.40;;;;;;4996905;28;20046;-14
2022/04/09 06:55:55;;;;;;;0.28;0.20;;;16.30;60.00;;;;;;4995434;28;20057;-15
2022/04/09 06:58:20;;;;;;;0.40;0.30;;;16.40;59.80;;;;;;4994361;28;20063;-14
2022/04/09 07:00:46;;;;;;;0.20;0.20;;;16.40;59.90;;;;;;4996297;28;20062;-15
2022/04/09 07:03:13;;;;;;;0.30;0.20;;;16.40;59.90;;;;;;4995157;28;20098;-13
2022/04/09 07:05:39;;;;;;;0.30;0.30;;;16.30;59.90;;;;;;4996679;28;20046;-12
2022/04/09 07:08:07;;;;;;;0.30;0.30;;;16.30;59.90;;;;;;4996185;28;20042;-13
2022/04/09 07:10:33;;;;;;;0.30;0.30;;;16.30;59.90;;;;;;4989960;28;20108;-12
2022/04/09 07:12:59;;;;;;;0.20;0.20;;;16.30;59.90;;;;;;4995712;28;20069;-14
2022/04/09 07:15:24;;;;;;;0.30;0.22;;;16.30;59.90;;;;;;4996288;28;20042;-12
2022/04/09 07:17:51;;;;;;;0.32;0.32;;;16.30;59.90;;;;;;4988717;28;20606;-13
2022/04/09 07:20:16;;;;;;;0.25;0.25;;;16.30;59.90;;;;;;4994099;28;20053;-12
2022/04/09 07:22:43;;;;;;;0.38;0.30;;;16.30;60.10;;;;;;4995052;28;20050;-13
2022/04/09 07:25:10;;;;;;;1.40;0.30;;;16.40;59.90;;;;;;4993430;28;20039;-13
2022/04/09 07:27:45;;;;;;;0.52;0.20;;;16.30;60.00;;;;;;4977552;28;20538;-12
2022/04/09 07:30:16;;;;;;;0.20;0.20;;;16.50;59.50;;;;;;4993590;28;20054;-13
2022/04/09 07:32:42;;;;;;;1.65;0.30;;;16.70;59.30;;;;;;4993515;28;20449;-12
2022/04/09 07:35:08;;;;;;;0.50;0.30;;;16.80;58.90;;;;;;4989700;28;20046;-12
2022/04/09 07:37:42;;;;;;;0.20;0.20;;;16.90;58.60;;;;;;4990142;28;20050;-13
2022/04/09 07:40:09;;;;;;;0.45;0.45;;;17.00;58.30;;;;;;4993134;28;20054;-12
2022/04/09 07:42:35;;;;;;;1.20;0.20;;;17.10;58.10;;;;;;4995271;28;20039;-14
2022/04/09 07:45:00;;;;;;;0.32;0.25;;;17.50;57.40;;;;;;4994574;28;20046;-14
2022/04/09 07:47:26;;;;;;;0.38;0.30;;;17.60;56.90;;;;;;4993419;28;20039;-13
2022/04/09 07:49:52;;;;;;;0.20;0.20;;;17.60;56.40;;;;;;4993724;28;20129;-13
2022/04/09 07:52:17;;;;;;;0.20;0.20;;;17.70;56.90;;;;;;4992729;28;20058;-13
2022/04/09 07:54:43;;;;;;;0.20;0.20;;;17.70;56.00;;;;;;4995657;28;20051;-12
2022/04/09 07:57:08;;;;;;;0.38;0.30;;;17.80;55.90;;;;;;4994746;28;20070;-13
2022/04/09 07:59:34;;;;;;;0.30;0.30;;;17.80;55.80;;;;;;4995311;28;20093;-13
2022/04/09 08:01:59;;;;;;;0.28;0.28;;;17.80;55.80;;;;;;4994743;28;20537;-14
2022/04/09 08:04:25;;;;;;;0.20;0.20;;;17.40;56.50;;;;;;4985459;28;20111;-13
2022/04/09 08:06:51;;;;;;;0.20;0.20;;;17.00;57.40;;;;;;4991565;28;20506;-13
2022/04/09 08:09:17;;;;;;;0.88;0.38;;;16.70;58.10;;;;;;4993031;28;20109;-13
2022/04/09 08:11:43;;;;;;;0.30;0.20;;;16.60;58.40;;;;;;4994379;28;20451;-12
2022/04/09 08:14:09;;;;;;;0.30;0.30;;;16.50;59.40;;;;;;4995286;28;20046;-12
2022/04/09 08:16:34;;;;;;;0.10;0.10;;;16.50;59.00;;;;;;4995317;28;20038;-13
2022/04/09 08:19:02;;;;;;;0.10;0.10;;;16.40;59.00;;;;;;4992449;28;21334;-13
2022/04/09 08:21:27;;;;;;;0.22;0.10;;;16.40;59.00;;;;;;4994332;28;20047;-13
2022/04/09 08:23:53;;;;;;;0.32;0.32;;;16.50;59.10;;;;;;4991023;28;20055;-13
2022/04/09 08:26:19;;;;;;;0.20;0.10;;;16.40;58.90;;;;;;4993999;28;20051;-13
2022/04/09 08:28:44;;;;;;;0.20;0.20;;;16.40;59.00;;;;;;4995530;28;20739;-14
2022/04/09 08:31:10;;;;;;;0.10;0.10;;;16.40;58.90;;;;;;4994952;28;20045;-14
2022/04/09 08:33:35;;;;;;;0.10;0.10;;;16.40;58.90;;;;;;4994199;28;20043;-13
2022/04/09 08:36:02;;;;;;;0.20;0.20;;;16.40;58.90;;;;;;4993987;28;20893;-14
2022/04/09 08:38:28;;;;;;;0.40;0.15;;;16.50;58.90;;;;;;4993865;28;20048;-13
2022/04/09 08:40:54;;;;;;;0.22;0.20;;;16.50;58.80;;;;;;4994721;28;20043;-14
2022/04/09 08:43:20;;;;;;;0.20;0.20;;;16.40;58.80;;;;;;4980964;28;20085;-12
2022/04/09 08:45:46;;;;;;;0.20;0.20;;;16.40;58.90;;;;;;4995913;28;20042;-12
2022/04/09 08:48:11;;;;;;;0.20;0.20;;;16.40;59.00;;;;;;4980475;28;20105;-14
2022/04/09 08:50:37;;;;;;;0.20;0.20;;;16.40;59.00;;;;;;4994063;28;20051;-13
2022/04/09 08:53:09;;;;;;;0.30;0.20;;;16.40;59.60;;;;;;4979299;28;20051;-13
2022/04/09 08:55:35;;;;;;;1.20;0.30;;;16.40;59.10;;;;;;4999094;28;20046;-13
2022/04/09 08:58:01;;;;;;;0.35;0.10;;;16.40;59.30;;;;;;4997474;28;20077;-12
2022/04/09 09:00:27;;;;;;;0.22;0.20;;;16.30;59.20;;;;;;4989566;28;20077;-13
2022/04/09 09:02:54;;;;;;;0.47;0.20;;;16.40;59.30;;;;;;4998448;28;20182;-13
2022/04/09 09:05:52;;;;;;;0.57;0.20;;;16.40;59.30;;;;;;4992970;28;20918;-12
2022/04/09 09:08:33;;;;;;;0.32;0.25;;;16.40;59.20;;;;;;4993424;28;20050;-13
2022/04/09 09:10:59;;;;;;;0.25;0.25;;;16.40;59.10;;;;;;4996924;28;20068;-14
2022/04/09 09:13:25;;;;;;;0.52;0.20;;;16.40;59.00;;;;;;4997319;28;20046;-13
2022/04/09 09:15:55;;;;;;;0.50;0.20;;;16.40;58.90;;;;;;4998682;28;20065;-13
2022/04/09 09:18:25;;;;;;;0.40;0.40;;;16.50;58.70;;;;;;4995546;28;20045;-13
2022/04/09 09:20:52;;;;;;;0.47;0.30;;;16.50;58.50;;;;;;4994675;28;20113;-14
2022/04/09 09:23:30;;;;;;;1.02;0.30;;;16.50;58.70;;;;;;4995267;28;20050;-13
2022/04/09 09:25:57;;;;;;;0.45;0.22;;;16.50;58.60;;;;;;4989168;28;20101;-16
2022/04/09 09:28:26;;;;;;;0.60;0.30;;;16.50;58.40;;;;;;4997311;28;20105;-13
2022/04/09 09:30:52;;;;;;;0.95;0.35;;;16.50;58.30;;;;;;4998467;28;20077;-12
2022/04/09 09:33:18;;;;;;;0.82;0.28;;;16.40;58.50;;;;;;4997139;28;20046;-13
2022/04/09 09:35:48;;;;;;;1.33;0.40;;;16.40;58.10;;;;;;4998364;28;20049;-13
2022/04/09 09:38:18;;;;;;;0.65;0.30;;;16.50;58.30;;;;;;4645822;28;10000064;-12
2022/04/09 09:40:44;;;;;;;0.38;0.22;;;16.40;57.90;;;;;;5004776;28;20179;-12
2022/04/09 09:43:18;;;;;;;0.40;0.30;;;16.40;57.00;;;;;;5004310;28;20124;-12
2022/04/09 09:45:44;;;;;;;0.60;0.35;;;16.50;56.60;;;;;;4988771;28;20057;-12
2022/04/09 09:48:30;;;;;;;0.93;0.30;;;16.50;56.60;;;;;;4988853;28;20054;-14
2022/04/09 09:50:59;;;;;;;0.88;0.28;;;16.50;56.50;;;;;;4991914;28;20050;-14
2022/04/09 09:53:28;;;;;;;1.23;0.47;;;16.60;56.10;;;;;;4983440;28;23144;-14
2022/04/09 09:55:55;;;;;;;1.92;0.50;;;16.60;56.20;;;;;;4986916;28;20452;-13
2022/04/09 09:58:21;;;;;;;0.63;0.30;;;16.70;56.30;;;;;;5005582;28;20057;-13
2022/04/09 10:00:48;;;;;;;0.52;0.40;;;16.70;55.70;;;;;;4991416;28;20535;-13
2022/04/09 10:03:13;;;;;;;0.60;0.40;;;16.80;55.90;;;;;;4996433;28;20054;-14
2022/04/09 10:05:40;;;;;;;0.70;0.47;;;16.80;55.50;;;;;;4994644;28;20046;-13
2022/04/09 10:08:06;;;;;;;0.50;0.30;;;16.80;55.70;;;;;;4995677;28;20050;-14
2022/04/09 10:10:35;;;;;;;1.42;0.22;;;16.90;55.60;;;;;;4996574;28;20042;-12
2022/04/09 10:13:02;;;;;;;1.50;0.22;;;16.90;55.50;;;;;;4996486;28;20097;-13
2022/04/09 10:15:27;;;;;;;0.57;0.30;;;16.90;55.40;;;;;;4994312;28;20140;-13
2022/04/09 10:17:55;;;;;;;0.68;0.50;;;16.90;55.40;;;;;;4991867;28;20078;-14
2022/04/09 10:20:21;;;;;;;0.30;0.30;;;16.80;55.30;;;;;;4991078;28;20050;-12
2022/04/09 10:22:47;;;;;;;0.70;0.45;;;16.80;55.20;;;;;;4993577;28;20057;-13
2022/04/09 10:25:14;;;;;;;0.50;0.40;;;16.80;54.90;;;;;;4984153;28;20053;-14
2022/04/09 10:27:42;;;;;;;0.88;0.40;;;16.80;55.00;;;;;;4979771;28;20054;-13
2022/04/09 10:30:17;;;;;;;1.05;0.70;;;16.80;55.10;;;;;;4995058;28;20047;-13
2022/04/09 10:32:46;;;;;;;1.00;0.30;;;16.80;54.90;;;;;;4996809;28;20058;-12
2022/04/09 10:35:38;;;;;;;0.90;0.40;;;16.70;54.90;;;;;;4994834;28;20046;-13
2022/04/09 10:38:10;;;;;;;1.85;0.40;;;16.80;54.90;;;;;;4991900;28;20129;-13
2022/04/09 10:40:36;;;;;;;1.70;0.50;;;16.80;54.50;;;;;;4988552;28;20117;-13
2022/04/09 10:43:03;;;;;;;1.08;0.40;;;16.70;54.60;;;;;;4977745;28;20128;-13
2022/04/09 10:45:28;;;;;;;4.70;0.80;;;16.80;54.60;;;;;;4992579;28;20046;-13
2022/04/09 10:48:14;;;;;;;1.00;0.30;;;16.80;54.50;;;;;;4996510;28;20133;-13
2022/04/09 10:50:54;;;;;;;0.70;0.40;;;16.80;54.60;;;;;;4985118;28;20051;-13
2022/04/09 10:53:24;;;;;;;0.73;0.73;;;16.90;54.70;;;;;;4992315;28;20112;-13
2022/04/09 10:56:29;;;;;;;0.50;0.40;;;16.90;54.60;;;;;;4992833;28;20046;-14
2022/04/09 10:59:20;;;;;;;0.40;0.30;;;17.00;54.50;;;;;;4993146;28;20050;-13
2022/04/09 11:01:46;;;;;;;0.40;0.30;;;16.90;54.60;;;;;;4982437;28;20113;-14
2022/04/09 11:04:31;;;;;;;1.05;0.50;;;17.00;54.70;;;;;;4993065;28;20070;-14
2022/04/09 11:07:00;;;;;;;2.05;0.50;;;17.00;54.50;;;;;;4996004;28;20038;-13
2022/04/09 11:09:26;;;;;;;0.65;0.35;;;17.00;54.50;;;;;;4992717;28;20046;-13
2022/04/09 11:12:01;;;;;;;2.15;0.50;;;17.00;54.60;;;;;;4986408;28;20046;-15
2022/04/09 11:14:27;;;;;;;1.27;0.70;;;17.00;54.50;;;;;;4994301;28;20069;-14
2022/04/09 11:16:53;;;;;;;0.68;0.40;;;17.00;54.70;;;;;;4995470;28;20050;-14
2022/04/09 11:19:21;;;;;;;1.48;0.73;;;17.00;54.80;;;;;;4994381;28;20081;-14
2022/04/09 11:21:50;;;;;;;0.35;0.30;;;17.00;54.70;;;;;;4991119;28;20057;-14
2022/04/09 11:24:17;;;;;;;1.90;0.50;;;17.00;54.60;;;;;;4985587;28;20141;-14
2022/04/09 11:26:54;;;;;;;0.77;0.63;;;17.00;54.50;;;;;;4996254;28;20077;-13
2022/04/09 11:29:20;;;;;;;1.27;0.57;;;17.00;54.30;;;;;;4995472;28;20054;-13
2022/04/09 11:31:47;;;;;;;1.08;0.63;;;17.00;55.10;;;;;;4993878;28;20038;-13
2022/04/09 11:34:13;;;;;;;1.27;0.75;;;17.00;54.50;;;;;;5002144;28;20420;-15
2022/04/09 11:36:38;;;;;;;0.82;0.40;;;17.00;54.50;;;;;;4997413;28;20046;-13
2022/04/09 11:39:04;;;;;;;1.45;0.70;;;17.00;54.30;;;;;;4647420;28;9999759;-14
2022/04/09 11:41:29;;;;;;;1.10;0.70;;;17.00;54.40;;;;;;4989762;28;20054;-14
2022/04/09 11:43:55;;;;;;;1.23;0.90;;;17.00;54.30;;;;;;4991638;28;20050;-14
2022/04/09 11:46:21;;;;;;;1.70;0.80;;;17.10;54.30;;;;;;4994326;28;20118;-14
2022/04/09 11:48:59;;;;;;;2.38;0.82;;;17.10;54.30;;;;;;4986635;28;20109;-13
2022/04/09 11:51:25;;;;;;;1.08;0.80;;;17.10;54.20;;;;;;4991399;28;20053;-14
2022/04/09 11:53:50;;;;;;;1.95;1.08;;;17.00;54.00;;;;;;4991450;28;20594;-14
2022/04/09 11:56:16;;;;;;;3.67;1.00;;;17.00;53.80;;;;;;4992404;28;20073;-14
2022/04/09 11:58:41;;;;;;;1.80;0.77;;;17.00;54.00;;;;;;4989114;28;20065;-14
2022/04/09 12:01:08;;;;;;;2.47;1.10;;;17.00;54.10;;;;;;4992016;28;20054;-13
2022/04/09 12:03:34;;;;;;;1.80;0.88;;;17.00;54.20;;;;;;4989127;28;20061;-14
2022/04/09 12:06:00;;;;;;;1.50;0.90;;;17.00;54.10;;;;;;4980159;28;20045;-14
2022/04/09 12:08:26;;;;;;;1.98;1.13;;;17.00;53.70;;;;;;4993324;28;20042;-14
2022/04/09 12:10:58;;;;;;;1.33;0.80;;;17.00;53.80;;;;;;4995441;28;20103;-13
2022/04/09 12:13:34;;;;;;;2.15;1.10;;;17.00;53.80;;;;;;4987704;28;20059;-13
2022/04/09 12:16:21;;;;;;;2.70;1.17;;;17.00;54.00;;;;;;4990934;28;20419;-15
2022/04/09 12:18:48;;;;;;;1.55;0.95;;;17.10;53.80;;;;;;4990615;28;20065;-14
2022/04/09 12:21:23;;;;;;;1.38;0.80;;;17.10;53.80;;;;;;4993208;28;20108;-15
2022/04/09 12:24:02;;;;;;;3.25;0.80;;;17.10;53.60;;;;;;4991293;28;20066;-13
2022/04/09 12:26:28;;;;;;;2.08;0.70;;;17.10;53.20;;;;;;4994109;28;20145;-14
2022/04/09 12:29:20;;;;;;;3.70;0.80;;;17.10;52.90;;;;;;5001709;28;20052;-13
2022/04/09 12:31:48;;;;;;;1.40;1.00;;;17.10;53.10;;;;;;4996502;28;20046;-13
2022/04/09 12:34:14;;;;;;;1.15;1.00;;;17.10;53.10;;;;;;4996081;28;20519;-15
2022/04/09 12:37:13;;;;;;;2.17;0.90;;;17.10;52.90;;;;;;4989240;28;20496;-13
2022/04/09 12:39:40;;;;;;;1.48;1.00;;;17.10;52.80;;;;;;4996672;28;20136;-13
2022/04/09 12:42:05;;;;;;;1.67;1.08;;;17.10;52.90;;;;;;4994174;28;20589;-14
2022/04/09 12:44:35;;;;;;;1.23;0.60;;;17.10;52.60;;;;;;4994773;28;20413;-13
2022/04/09 12:47:01;;;;;;;2.17;0.70;;;17.10;52.40;;;;;;4993777;28;20089;-13